McCall, Idaho
Current Conditions -  °F | °C
As of 12:51 PM on Thursday 23 Oct 2014 (Local Time) from KMYL Reporting Station
Light Rain Light Rain  
Wind Chill:   Ceiling: 2800
Heat Index:   Visibility: 9mi
Dew Point:   Wind: 16mph
Humidity: 86%   Direction: 150°SSE
Pressure: 30.03"   Gusts: 21mph
Location:  44.91°N, 116.1°W
Report Text: KMYL 231851Z AUTO 15014G18KT 9SM -RA OVC028 08/06 A3003 RMK AO2 SLP164 P0002 T00780056
Loading
Personal Weather Stations






























Interactive Weather Map
Tropical Storm Tracking
New forecast layout! Learn more

10-Day Weather Forecast

Advertisements
Track Severe Weather on mobile